Newport, NJ

4:37 AM EDT on October 26, 2014 (GMT -0400)
Millville Municipal | Change Station
CLOSE
Current Station
Airport
Location: Millville,
Elevation: 82 ft
Nearby Weather Stations

Elev 82 ft 39.37 °N, 75.08 °W | Updated 43 minutes ago

Mostly Cloudy
Mostly Cloudy
54 °F
Feels Like 54 °F
N
6
Wind Variable Wind from West

Today
High -- | Low -- °F
--% Chance of Precip.
Yesterday
High -- | Low -- °F
Precip. -- in
7:21 AM 6:06 PM
Waxing Crescent, 6% visible
Pressure 29.62 in
Visibility 10.0 miles
Clouds Mostly Cloudy 7000 ft
Mostly Cloudy 8500 ft
Dew Point 47 °F
Humidity 77%
Rainfall 0.00 in
Snow Depth Not available.
UV 0 out of 12
Pollen 1.20 out of 12
Air Quality Not available.
Flu Activity Sporadic
METAR KMIV 260754Z AUTO 27005KT 10SM BKN070 BKN085 12/08 A2962 RMK AO2 SLP029 T01220083

More Conditions Fewer Conditions

Pressure 29.62 in
Visibility 10.0 miles
Clouds Mostly Cloudy 7000 ft
Mostly Cloudy 8500 ft
Dew Point 47 °F
Humidity 77%
Rainfall 0.00 in
Snow Depth Not available.
UV 0 out of 12
Pollen 1.20 out of 12
Air Quality Not available.
Flu Activity Sporadic
METAR KMIV 260754Z AUTO 27005KT 10SM BKN070 BKN085 12/08 A2962 RMK AO2 SLP029 T01220083

More Conditions Fewer Conditions

10-Day Weather Forecast

Almanac

Astronomy

Oct. 26, 2014 Rise Set
Actual Time 7:21 AM EDT 6:06 PM EDT
Civil Twilight 6:54 AM EDT 6:34 PM EDT
Nautical Twilight 6:22 AM EDT 7:05 PM EDT
Astronomical Twilight 5:51 AM EDT 7:36 PM EDT
Moon 9:56 AM EDT 8:16 PM EDT
Length of Visible Light 11h 39m
Length of Day
10h 44m
Tomorrow will be 2m 21s shorter.
Waxing Crescent, 6% of the Moon is Illuminated
Today
Waxing Crescent
Oct 30
First Quarter
Nov 6
Full
Nov 14
Last Quarter
Nov 22
New

Today's Extremes

State Highs State Lows

Community

WunderPhotos

Upload Photos

1,765,127 photos uploaded!

Nearby

Air Quality

  Air Quality AQ Index Pollutant
Yesterday Good
OZONE
Sunday Good
PM2.5
Sunday Good
OZONE
Monday Good
PM2.5
Monday Good
OZONE

Snow Depth

Station Depth Elevation
No new snow has been reported.

Earthquake Activity

City Distance Mag. Time & Date
No recent earthquake activity has been reported nearby.
Minimum magnitude displayed is 2.5.

Coastal Water Temperatures

Place Temperature
Cape May, NJ 63.0 °F
Reedy Point, DE 61.0 °F
Delaware City, DE 61.0 °F
Marcus Hook, PA 62.1 °F

Nearby Weather Stations